Time;durP1;ratioP1;P1;durP2;ratioP2;P2;SDS_P1;SDS_P2;PMS_P1;PMS_P2;Temp;Humidity;BMP_temperature;BMP_pressure;BME280_temperature;BME280_humidity;BME280_pressure;Samples;Min_cycle;Max_cycle;Signal;HPM_P1;HPM_P2
2023/07/01 00:00:20;;;;;;;6.05;1.90;;;;;;;18.43;100.00;100616.06;5222330;28;20038;-67
2023/07/01 00:02:53;;;;;;;5.38;2.10;;;;;;;18.42;100.00;100611.66;5224936;28;20344;-66
2023/07/01 00:05:24;;;;;;;6.80;2.00;;;;;;;18.42;100.00;100608.97;5225921;28;20104;-66
2023/07/01 00:07:56;;;;;;;5.70;1.58;;;;;;;18.46;100.00;100606.75;5223041;28;20042;-67
2023/07/01 00:10:27;;;;;;;7.82;1.95;;;;;;;18.39;100.00;100603.94;5226051;28;20949;-66
2023/07/01 00:12:59;;;;;;;4.20;1.70;;;;;;;18.39;100.00;100598.53;5224108;28;20033;-66
2023/07/01 00:15:31;;;;;;;6.10;1.50;;;;;;;18.37;100.00;100593.28;5225319;28;20425;-67
2023/07/01 00:18:02;;;;;;;7.32;1.77;;;;;;;18.40;100.00;100584.00;5225932;28;20177;-66
2023/07/01 00:20:34;;;;;;;5.90;1.90;;;;;;;18.37;100.00;100581.63;5232154;28;20564;-66
2023/07/01 00:23:05;;;;;;;5.00;1.88;;;;;;;18.35;100.00;100586.34;5228734;28;20107;-67
2023/07/01 00:25:37;;;;;;;7.30;1.92;;;;;;;18.32;100.00;100581.31;5227832;28;20033;-67
2023/07/01 00:28:08;;;;;;;6.45;1.77;;;;;;;18.40;100.00;100578.59;5228212;28;20032;-67
2023/07/01 00:30:40;;;;;;;5.35;2.03;;;;;;;18.36;100.00;100570.00;5229687;28;20025;-66
2023/07/01 00:33:11;;;;;;;5.63;1.60;;;;;;;18.30;100.00;100578.78;5228495;28;20533;-66
2023/07/01 00:35:43;;;;;;;5.97;2.08;;;;;;;18.31;100.00;100566.13;5228765;28;20033;-66
2023/07/01 00:38:14;;;;;;;5.88;2.17;;;;;;;18.33;100.00;100566.78;5229922;28;20076;-67
2023/07/01 00:40:45;;;;;;;4.90;1.88;;;;;;;18.25;100.00;100561.44;5229489;28;20037;-67
2023/07/01 00:43:17;;;;;;;5.68;2.08;;;;;;;18.25;100.00;100564.13;5232119;28;20367;-67
2023/07/01 00:45:49;;;;;;;4.60;1.70;;;;;;;18.25;100.00;100558.72;5223374;28;20119;-67
2023/07/01 00:48:26;;;;;;;4.05;1.80;;;;;;;18.27;100.00;100548.59;5233251;28;20024;-66
2023/07/01 00:50:58;;;;;;;4.13;1.55;;;;;;;18.22;100.00;100549.97;5227115;28;20053;-66
2023/07/01 00:53:30;;;;;;;6.25;2.03;;;;;;;18.22;100.00;100549.97;5226152;28;20163;-66
2023/07/01 00:56:03;;;;;;;4.45;1.67;;;;;;;18.21;100.00;100550.13;5221898;28;20404;-66
2023/07/01 00:58:35;;;;;;;6.47;1.90;;;;;;;18.19;100.00;100546.75;5231539;28;20032;-66
2023/07/01 01:01:17;;;;;;;4.50;2.10;;;;;;;18.14;100.00;100543.72;5232757;28;20291;-67
2023/07/01 01:04:33;;;;;;;9.13;2.40;;;;;;;18.18;100.00;100542.41;5228366;28;20479;-66
2023/07/01 01:07:14;;;;;;;4.65;1.90;;;;;;;18.07;100.00;100534.66;5239967;28;20136;-66
2023/07/01 01:09:53;;;;;;;7.47;2.10;;;;;;;18.03;100.00;100528.78;5225716;28;20040;-66
2023/07/01 01:12:27;;;;;;;6.72;1.80;;;;;;;17.99;100.00;100525.56;5227228;28;20033;-66
2023/07/01 01:14:59;;;;;;;;;;;;;;;18.19;100.00;100526.00;5227528;28;20033;-66
2023/07/01 01:17:35;;;;;;;5.68;2.00;;;;;;;18.08;100.00;100520.13;5227493;28;20309;-66
2023/07/01 01:20:12;;;;;;;5.18;1.90;;;;;;;18.04;100.00;100519.63;5225073;28;20020;-66
2023/07/01 01:22:49;;;;;;;5.55;1.88;;;;;;;18.05;100.00;100512.41;5233568;28;20270;-66
2023/07/01 01:25:28;;;;;;;5.85;2.17;;;;;;;18.10;100.00;100507.31;5231859;28;20052;-67
2023/07/01 01:28:00;;;;;;;5.13;1.98;;;;;;;18.08;100.00;100507.47;5225268;28;20029;-66
2023/07/01 01:30:32;;;;;;;6.95;1.85;;;;;;;18.09;100.00;100509.16;5230589;28;20379;-66
2023/07/01 01:33:06;;;;;;;6.55;2.40;;;;;;;18.19;100.00;100509.78;5228047;28;20091;-66
2023/07/01 01:35:37;;;;;;;12.48;1.90;;;;;;;18.11;100.00;100500.91;5230706;28;20056;-66
2023/07/01 01:38:19;;;;;;;8.00;2.40;;;;;;;18.09;100.00;100503.78;5230431;28;20029;-66
2023/07/01 01:41:04;;;;;;;5.25;2.00;;;;;;;18.08;100.00;100503.94;5228796;28;20037;-66
2023/07/01 01:43:48;;;;;;;4.38;1.90;;;;;;;18.05;100.00;100497.03;5224755;28;20022;-67
2023/07/01 01:46:21;;;;;;;5.82;2.05;;;;;;;18.02;100.00;100500.06;5227714;28;20037;-66
2023/07/01 01:48:56;;;;;;;6.22;2.15;;;;;;;17.92;100.00;100488.66;5228115;28;20084;-66
2023/07/01 01:51:28;;;;;;;4.70;2.22;;;;;;;17.94;100.00;100497.41;5229776;28;20057;-67
2023/07/01 01:54:04;;;;;;;5.20;2.03;;;;;;;17.93;100.00;100493.00;5225367;28;20041;-66
2023/07/01 01:56:36;;;;;;;5.18;2.00;;;;;;;17.95;100.00;100485.59;5225005;28;20182;-66
2023/07/01 01:59:08;;;;;;;4.57;2.20;;;;;;;17.91;100.00;100481.56;5228892;28;20125;-66
2023/07/01 02:01:40;;;;;;;5.88;2.38;;;;;;;17.90;100.00;100479.88;5229838;28;20056;-66
2023/07/01 02:04:11;;;;;;;4.95;2.05;;;;;;;17.87;100.00;100482.94;5225262;28;20124;-66
2023/07/01 02:06:43;;;;;;;4.45;1.98;;;;;;;17.87;100.00;100474.81;5228154;28;20049;-66
2023/07/01 02:09:14;;;;;;;6.07;2.35;;;;;;;17.86;100.00;100478.56;5232182;28;20376;-66
2023/07/01 02:11:46;;;;;;;5.90;2.20;;;;;;;17.81;100.00;100468.22;5231669;28;20033;-66
2023/07/01 02:14:17;;;;;;;6.10;2.65;;;;;;;17.82;100.00;100475.34;5234431;28;20213;-66
2023/07/01 02:16:50;;;;;;;4.75;2.17;;;;;;;17.78;100.00;100477.53;5225430;28;20462;-66
2023/07/01 02:19:21;;;;;;;5.18;2.17;;;;;;;17.78;100.00;100469.44;5231316;28;20364;-67
2023/07/01 02:21:52;;;;;;;5.95;2.35;;;;;;;17.77;100.00;100470.44;5229603;28;20033;-66
2023/07/01 02:24:24;;;;;;;4.93;2.10;;;;;;;17.74;100.00;100473.50;5233488;28;20143;-66
2023/07/01 02:26:55;;;;;;;6.68;2.40;;;;;;;17.70;100.00;100463.22;5220634;28;20017;-66
2023/07/01 02:29:27;;;;;;;7.10;2.83;;;;;;;17.68;100.00;100457.16;5233642;28;20025;-67
2023/07/01 02:31:58;;;;;;;4.93;2.08;;;;;;;17.66;100.00;100448.38;5227373;28;20412;-67
2023/07/01 02:34:30;;;;;;;6.00;2.65;;;;;;;17.65;100.00;100452.94;5230306;28;20029;-66
2023/07/01 02:37:01;;;;;;;7.53;2.28;;;;;;;17.62;100.00;100456.84;5230579;28;20033;-66
2023/07/01 02:39:33;;;;;;;7.20;2.00;;;;;;;17.61;100.00;100441.66;5232682;28;20033;-66
2023/07/01 02:42:05;;;;;;;6.93;2.10;;;;;;;17.55;100.00;100436.97;5234488;28;20044;-66
2023/07/01 02:44:36;;;;;;;9.77;2.60;;;;;;;17.53;100.00;100440.84;5231900;28;20065;-66
2023/07/01 02:47:08;;;;;;;8.63;1.85;;;;;;;17.51;100.00;100442.84;5229452;28;20783;-66
2023/07/01 02:49:40;;;;;;;6.18;2.25;;;;;;;17.45;100.00;100433.63;5234213;28;20049;-66
2023/07/01 02:52:11;;;;;;;5.40;2.13;;;;;;;17.39;100.00;100440.56;5230692;28;20560;-66
2023/07/01 02:54:43;;;;;;;5.40;2.03;;;;;;;17.36;100.00;100440.88;5228607;28;20171;-66
2023/07/01 02:57:14;;;;;;;5.00;2.38;;;;;;;17.31;100.00;100448.63;5233212;28;20029;-66
2023/07/01 02:59:46;;;;;;;3.53;1.90;;;;;;;17.20;100.00;100441.75;5230288;28;20040;-66
2023/07/01 03:02:18;;;;;;;4.05;2.33;;;;;;;17.22;100.00;100441.56;5229467;28;20431;-66
2023/07/01 03:04:49;;;;;;;4.75;2.40;;;;;;;17.20;100.00;100440.91;5229185;28;20027;-66
2023/07/01 03:07:21;;;;;;;3.65;2.05;;;;;;;17.18;100.00;100432.13;5227831;28;20518;-66
2023/07/01 03:09:52;;;;;;;3.95;1.92;;;;;;;17.17;100.00;100425.91;5231901;28;20078;-66
2023/07/01 03:12:23;;;;;;;5.20;2.10;;;;;;;17.15;100.00;100432.50;5231584;28;22047;-66
2023/07/01 03:14:55;;;;;;;4.00;1.90;;;;;;;17.11;100.00;100433.84;5232866;28;20499;-66
2023/07/01 03:17:26;;;;;;;4.43;1.85;;;;;;;17.07;100.00;100429.78;5224366;28;20107;-66
2023/07/01 03:19:58;;;;;;;4.97;2.30;;;;;;;16.98;100.00;100424.41;5231829;28;20033;-66
2023/07/01 03:22:29;;;;;;;4.25;2.00;;;;;;;17.02;100.00;100417.66;5223040;28;20033;-66
2023/07/01 03:25:02;;;;;;;4.13;2.00;;;;;;;16.96;100.00;100418.34;5227836;28;20045;-66
2023/07/01 03:27:33;;;;;;;3.80;2.20;;;;;;;16.90;100.00;100418.22;5225369;28;20033;-66
2023/07/01 03:30:05;;;;;;;5.60;1.98;;;;;;;16.86;100.00;100415.00;5230189;28;20032;-66
2023/07/01 03:32:37;;;;;;;4.38;2.15;;;;;;;16.87;100.00;100405.06;5231833;28;20055;-66
2023/07/01 03:35:09;;;;;;;8.25;2.30;;;;;;;16.90;100.00;100407.44;5234343;28;20025;-67
2023/07/01 03:37:42;;;;;;;4.97;2.13;;;;;;;16.85;100.00;100411.44;5228800;28;20056;-66
2023/07/01 03:40:14;;;;;;;4.03;2.10;;;;;;;16.92;100.00;100406.22;5228813;28;20070;-66
2023/07/01 03:42:46;;;;;;;4.38;2.10;;;;;;;16.84;100.00;100406.25;5234198;28;20159;-66
2023/07/01 03:45:17;;;;;;;4.75;2.55;;;;;;;16.84;100.00;100404.38;5232696;28;20243;-66
2023/07/01 03:47:49;;;;;;;4.93;2.50;;;;;;;16.80;100.00;100410.25;5227781;28;20049;-67
2023/07/01 03:50:20;;;;;;;4.45;2.30;;;;;;;16.79;100.00;100406.72;5235445;28;20033;-66
2023/07/01 03:52:52;;;;;;;5.78;2.60;;;;;;;16.73;100.00;100411.94;5228672;28;20133;-66
2023/07/01 03:55:23;;;;;;;4.75;2.58;;;;;;;16.72;100.00;100405.72;5229406;28;20032;-66
2023/07/01 03:57:54;;;;;;;4.25;2.40;;;;;;;16.65;100.00;100402.00;5230991;28;20026;-66
2023/07/01 04:00:26;;;;;;;6.93;2.75;;;;;;;16.64;100.00;100406.56;5231746;28;20163;-66
2023/07/01 04:03:05;;;;;;;5.20;2.72;;;;;;;16.62;100.00;100402.31;5230044;28;20116;-66
2023/07/01 04:05:36;;;;;;;3.92;2.50;;;;;;;16.60;100.00;100404.34;5225697;28;20031;-66
2023/07/01 04:08:08;;;;;;;4.88;3.03;;;;;;;16.54;100.00;100399.63;5222849;28;20046;-66
2023/07/01 04:10:39;;;;;;;4.18;2.95;;;;;;;16.45;100.00;100396.09;5222144;28;20021;-67
2023/07/01 04:13:10;;;;;;;6.18;3.20;;;;;;;16.45;100.00;100391.56;5230139;28;20025;-67
2023/07/01 04:15:42;;;;;;;5.50;3.03;;;;;;;16.41;100.00;100392.03;5224109;28;20052;-67
2023/07/01 04:18:13;;;;;;;3.67;2.95;;;;;;;16.37;100.00;100386.16;5231463;28;20030;-68
2023/07/01 04:20:45;;;;;;;4.03;2.88;;;;;;;16.32;100.00;100379.56;5223858;28;20108;-68
2023/07/01 04:23:16;;;;;;;4.47;3.30;;;;;;;16.35;100.00;100387.34;5223176;28;20033;-68
2023/07/01 04:25:47;;;;;;;4.97;3.00;;;;;;;16.31;100.00;100380.59;5221658;28;20044;-68
2023/07/01 04:28:19;;;;;;;3.85;3.05;;;;;;;16.23;100.00;100382.25;5228200;28;20079;-68
2023/07/01 04:30:50;;;;;;;3.83;2.60;;;;;;;16.22;100.00;100380.59;5224411;28;20474;-68
2023/07/01 04:33:22;;;;;;;4.50;2.75;;;;;;;16.16;100.00;100378.53;5221109;28;20030;-68
2023/07/01 04:35:54;;;;;;;7.13;3.03;;;;;;;16.11;100.00;100374.66;5227692;28;20041;-68
2023/07/01 04:38:25;;;;;;;4.35;2.70;;;;;;;16.16;100.00;100377.72;5222156;28;20068;-68
2023/07/01 04:40:57;;;;;;;4.30;2.50;;;;;;;16.17;100.00;100371.34;5229324;28;20029;-68
2023/07/01 04:43:29;;;;;;;3.97;2.60;;;;;;;16.13;100.00;100372.66;5227304;28;20834;-69
2023/07/01 04:46:01;;;;;;;3.30;2.50;;;;;;;16.10;100.00;100375.69;5221804;28;20032;-68
2023/07/01 04:48:32;;;;;;;4.00;2.38;;;;;;;16.12;100.00;100365.59;5227042;28;20074;-67
2023/07/01 04:51:03;;;;;;;4.13;2.53;;;;;;;16.07;100.00;100366.09;5221427;28;20033;-68
2023/07/01 04:53:38;;;;;;;4.95;2.50;;;;;;;16.07;100.00;100372.31;5222990;28;20411;-67
2023/07/01 04:56:10;;;;;;;5.82;2.70;;;;;;;16.05;100.00;100368.94;5222676;28;20032;-68
2023/07/01 04:58:41;;;;;;;3.40;2.47;;;;;;;16.05;100.00;100366.25;5226863;28;20029;-68
2023/07/01 05:01:13;;;;;;;3.47;2.42;;;;;;;16.04;100.00;100361.03;5225276;28;20045;-68
2023/07/01 05:03:44;;;;;;;4.10;2.72;;;;;;;15.96;100.00;100353.78;5218123;28;20102;-67
2023/07/01 05:06:15;;;;;;;3.53;2.47;;;;;;;16.02;100.00;100354.97;5219672;28;20443;-67
2023/07/01 05:08:48;;;;;;;4.88;2.67;;;;;;;16.07;100.00;100349.94;5217321;28;20025;-67
2023/07/01 05:11:19;;;;;;;3.63;2.60;;;;;;;16.07;100.00;100355.34;5221611;28;20033;-67
2023/07/01 05:13:51;;;;;;;3.65;2.60;;;;;;;16.11;100.00;100350.44;5222899;28;20480;-67
2023/07/01 05:16:22;;;;;;;4.20;2.92;;;;;;;16.16;100.00;100357.00;5223288;28;20136;-67
2023/07/01 05:18:56;;;;;;;3.45;2.78;;;;;;;16.25;100.00;100352.50;5223675;28;20091;-67
2023/07/01 05:21:31;;;;;;;4.97;2.63;;;;;;;16.21;100.00;100351.97;5226323;28;20372;-67
2023/07/01 05:24:04;;;;;;;5.00;2.90;;;;;;;16.21;100.00;100360.06;5221224;28;20467;-67
2023/07/01 05:26:36;;;;;;;5.90;3.35;;;;;;;16.23;100.00;100357.19;5223194;28;21122;-67
2023/07/01 05:29:08;;;;;;;5.28;2.65;;;;;;;16.23;100.00;100354.50;5224093;28;20030;-67
2023/07/01 05:31:39;;;;;;;3.90;2.80;;;;;;;16.18;100.00;100341.53;5224447;28;20044;-67
2023/07/01 05:34:11;;;;;;;5.15;2.78;;;;;;;16.16;100.00;100351.63;5224294;28;20484;-67
2023/07/01 05:36:43;;;;;;;4.10;2.50;;;;;;;16.20;100.00;100347.63;5221994;28;20034;-67
2023/07/01 05:39:14;;;;;;;4.57;2.65;;;;;;;16.20;100.00;100347.63;5220173;28;20233;-67
2023/07/01 05:41:46;;;;;;;5.68;2.80;;;;;;;16.23;100.00;100343.75;5222103;28;20037;-67
2023/07/01 05:44:17;;;;;;;4.78;2.88;;;;;;;16.17;100.00;100339.88;5219713;28;20025;-67
2023/07/01 05:46:49;;;;;;;5.32;3.00;;;;;;;16.19;100.00;100347.78;5224042;28;20431;-67
2023/07/01 05:49:20;;;;;;;4.70;2.88;;;;;;;16.20;100.00;100344.06;5221565;28;20044;-67
2023/07/01 05:51:52;;;;;;;5.85;3.00;;;;;;;16.24;100.00;100343.59;5224076;28;20143;-67
2023/07/01 05:54:23;;;;;;;4.28;2.92;;;;;;;16.20;100.00;100344.06;5215713;28;20029;-66
2023/07/01 05:56:54;;;;;;;4.15;2.55;;;;;;;16.16;100.00;100335.47;5223147;28;20402;-67
2023/07/01 05:59:26;;;;;;;5.35;3.00;;;;;;;16.24;100.00;100345.41;5220735;28;20025;-67
2023/07/01 06:01:57;;;;;;;4.03;2.70;;;;;;;16.27;100.00;100340.53;5229636;28;20067;-67
2023/07/01 06:04:28;;;;;;;5.60;2.70;;;;;;;16.26;100.00;100336.19;5223341;28;20060;-67
2023/07/01 06:07:00;;;;;;;4.53;2.88;;;;;;;16.27;100.00;100340.53;5230750;28;20129;-67
2023/07/01 06:09:31;;;;;;;5.25;2.60;;;;;;;16.33;100.00;100335.50;5225006;28;20642;-67
2023/07/01 06:12:03;;;;;;;3.97;2.40;;;;;;;16.40;100.00;100339.22;5228845;28;20030;-67
2023/07/01 06:14:34;;;;;;;4.50;2.90;;;;;;;16.41;100.00;100335.50;5224906;28;20048;-67
2023/07/01 06:17:06;;;;;;;5.60;2.65;;;;;;;16.45;100.00;100332.31;5224112;28;20052;-67
2023/07/01 06:19:37;;;;;;;4.30;2.90;;;;;;;16.52;100.00;100327.09;5236020;28;20040;-67
2023/07/01 06:22:08;;;;;;;3.65;2.20;;;;;;;16.58;100.00;100330.97;5226248;28;20068;-67
2023/07/01 06:24:40;;;;;;;4.50;2.22;;;;;;;16.62;100.00;100326.91;5227401;28;20030;-67
2023/07/01 06:27:11;;;;;;;3.38;2.17;;;;;;;16.66;100.00;100333.63;5230201;28;20391;-67
2023/07/01 06:29:43;;;;;;;4.30;2.58;;;;;;;16.85;100.00;100332.47;5227887;28;20025;-67
2023/07/01 06:32:14;;;;;;;3.63;2.40;;;;;;;16.75;100.00;100329.09;5230284;28;20025;-67
2023/07/01 06:34:46;;;;;;;3.63;2.22;;;;;;;16.75;100.00;100323.72;5228883;28;20664;-67
2023/07/01 06:37:17;;;;;;;3.53;2.50;;;;;;;16.80;100.00;100324.88;5236287;28;20471;-67
2023/07/01 06:39:49;;;;;;;3.67;2.47;;;;;;;16.83;100.00;100326.41;5228935;28;20488;-67
2023/07/01 06:42:20;;;;;;;4.13;2.40;;;;;;;16.85;100.00;100319.00;5230745;28;20033;-67
2023/07/01 06:44:52;;;;;;;3.97;2.10;;;;;;;16.80;100.00;100319.50;5233210;28;20393;-67
2023/07/01 06:47:23;;;;;;;3.00;2.00;;;;;;;16.79;100.00;100320.50;5232627;28;20064;-67
2023/07/01 06:49:55;;;;;;;3.35;2.10;;;;;;;16.96;100.00;100315.94;5224726;28;20108;-67
2023/07/01 06:52:26;;;;;;;3.10;2.00;;;;;;;16.94;100.00;100320.66;5233168;28;20040;-67
2023/07/01 06:54:57;;;;;;;3.20;2.20;;;;;;;17.01;100.00;100312.75;5230012;28;20033;-67
2023/07/01 06:57:30;;;;;;;4.45;2.20;;;;;;;17.09;100.00;100317.28;5225360;28;21837;-67
2023/07/01 07:00:03;;;;;;;3.67;2.30;;;;;;;17.09;100.00;100317.28;5232547;28;20111;-67
2023/07/01 07:02:34;;;;;;;2.78;1.85;;;;;;;17.07;100.00;100317.44;5226128;28;20053;-66
2023/07/01 07:05:08;;;;;;;3.00;1.90;;;;;;;17.09;100.00;100311.88;5228837;28;20040;-67
2023/07/01 07:07:39;;;;;;;3.95;2.17;;;;;;;17.16;100.00;100315.53;5230718;28;20483;-67
2023/07/01 07:10:11;;;;;;;3.13;2.10;;;;;;;17.16;100.00;100316.41;5228180;28;20083;-67
2023/07/01 07:12:42;;;;;;;3.03;2.10;;;;;;;17.16;100.00;100313.72;5231096;28;20048;-67
2023/07/01 07:15:14;;;;;;;3.42;2.28;;;;;;;17.18;100.00;100318.91;5230069;28;20037;-67
2023/07/01 07:17:45;;;;;;;3.88;2.20;;;;;;;17.11;100.00;100310.69;5231493;28;20519;-67
2023/07/01 07:20:17;;;;;;;3.53;2.20;;;;;;;17.15;100.00;100311.19;5225579;28;21797;-67
2023/07/01 07:22:49;;;;;;;3.55;2.10;;;;;;;17.18;100.00;100311.69;5234703;28;20029;-67
2023/07/01 07:25:20;;;;;;;4.30;2.30;;;;;;;17.18;100.00;100309.00;5232967;28;20013;-67
2023/07/01 07:27:51;;;;;;;4.40;2.30;;;;;;;17.21;100.00;100305.94;5235634;28;20487;-67
2023/07/01 07:30:23;;;;;;;4.88;2.63;;;;;;;17.24;100.00;100310.16;5231029;28;20044;-67
2023/07/01 07:32:54;;;;;;;3.10;2.30;;;;;;;17.20;100.00;100298.00;5232198;28;20033;-67
2023/07/01 07:35:26;;;;;;;2.90;1.98;;;;;;;17.20;100.00;100306.09;5240290;28;20365;-67
2023/07/01 07:37:57;;;;;;;3.42;2.28;;;;;;;17.22;100.00;100299.53;5234710;28;20064;-67
2023/07/01 07:40:29;;;;;;;4.00;2.40;;;;;;;17.25;100.00;100295.63;5239416;28;20502;-67
2023/07/01 07:43:11;;;;;;;3.28;2.50;;;;;;;17.32;100.00;100301.19;5245219;28;20040;-67
2023/07/01 07:45:42;;;;;;;3.92;2.38;;;;;;;17.27;100.00;100298.16;5231371;28;20080;-67
2023/07/01 07:48:14;;;;;;;4.35;2.40;;;;;;;17.30;100.00;100298.66;5234097;28;20029;-67
2023/07/01 07:50:45;;;;;;;4.32;2.47;;;;;;;17.44;100.00;100303.31;5235798;28;20037;-66
2023/07/01 07:53:16;;;;;;;4.03;2.33;;;;;;;17.48;100.00;100298.41;5236615;28;20026;-66
2023/07/01 07:55:48;;;;;;;3.28;2.33;;;;;;;17.55;100.00;100298.56;5237356;28;20033;-66
2023/07/01 07:58:19;;;;;;;3.42;2.38;;;;;;;17.58;100.00;100292.78;5230852;28;20042;-66
2023/07/01 08:00:51;;;;;;;3.63;2.20;;;;;;;17.63;100.00;100285.84;5235233;28;20029;-67
2023/07/01 08:03:22;;;;;;;3.30;2.17;;;;;;;17.70;100.00;100293.22;5233055;28;20029;-67
2023/07/01 08:05:54;;;;;;;4.35;2.50;;;;;;;17.85;100.00;100294.16;5237727;28;20033;-67
2023/07/01 08:08:25;;;;;;;3.90;2.42;;;;;;;17.90;100.00;100288.25;5230942;28;20029;-67
2023/07/01 08:10:58;;;;;;;3.75;2.25;;;;;;;17.96;100.00;100287.53;5240131;28;20025;-67
2023/07/01 08:13:29;;;;;;;2.72;2.00;;;;;;;18.01;100.00;100287.84;5238924;28;20033;-67
2023/07/01 08:16:01;;;;;;;3.20;2.15;;;;;;;18.04;100.00;100290.16;5243029;28;20021;-67
2023/07/01 08:18:32;;;;;;;3.45;2.20;;;;;;;18.02;100.00;100290.38;5233284;28;20361;-67
2023/07/01 08:21:04;;;;;;;3.63;2.05;;;;;;;18.10;100.00;100285.91;5235050;28;20275;-67
2023/07/01 08:23:35;;;;;;;2.78;1.60;;;;;;;18.12;100.00;100283.88;5234947;28;20064;-67
2023/07/01 08:26:06;;;;;;;2.60;1.65;;;;;;;18.16;100.00;100291.44;5233654;28;20025;-67
2023/07/01 08:28:38;;;;;;;3.05;2.08;;;;;;;18.25;100.00;100289.50;5240847;28;20029;-67
2023/07/01 08:31:10;;;;;;;2.50;1.77;;;;;;;18.23;100.00;100286.97;5233595;28;20021;-67
2023/07/01 08:33:42;;;;;;;2.22;1.50;;;;;;;18.31;100.00;100287.94;5226975;28;20033;-68
2023/07/01 08:36:13;;;;;;;2.55;1.42;;;;;;;18.41;100.00;100283.16;5236560;28;20032;-68
2023/07/01 08:38:45;;;;;;;2.78;1.33;;;;;;;18.39;100.00;100283.31;5232707;28;20572;-67
2023/07/01 08:41:18;;;;;;;3.22;1.50;;;;;;;18.41;100.00;100285.84;5236624;28;20475;-68
2023/07/01 08:43:52;;;;;;;2.30;1.60;;;;;;;18.44;100.00;100285.47;5223091;28;20480;-68
2023/07/01 08:46:24;;;;;;;5.28;1.30;;;;;;;18.46;100.00;100290.69;5224240;28;20733;-68
2023/07/01 08:48:57;;;;;;;2.25;1.13;;;;;;;18.44;100.00;100293.56;5224484;28;20029;-67
2023/07/01 08:51:31;;;;;;;2.25;1.30;;;;;;;18.47;100.00;100287.81;5232536;28;20033;-67
2023/07/01 08:54:04;;;;;;;2.10;1.20;;;;;;;18.46;100.00;100288.81;5222597;28;20034;-67
2023/07/01 08:56:36;;;;;;;3.45;1.13;;;;;;;18.49;100.00;100277.66;5222279;28;20026;-67
2023/07/01 08:59:09;;;;;;;4.13;1.00;;;;;;;18.51;100.00;100281.00;5233780;28;20029;-68
2023/07/01 09:01:42;;;;;;;2.78;1.20;;;;;;;18.57;100.00;100280.28;5232359;28;20700;-68
2023/07/01 09:04:14;;;;;;;2.00;1.05;;;;;;;18.49;100.00;100279.53;5231112;28;20029;-67
2023/07/01 09:06:45;;;;;;;2.38;1.15;;;;;;;18.59;100.00;100283.63;5228422;28;20050;-68
2023/07/01 09:09:17;;;;;;;1.85;0.90;;;;;;;18.64;100.00;100279.53;5242730;28;20041;-67
2023/07/01 09:11:48;;;;;;;2.42;1.10;;;;;;;18.74;100.00;100282.81;5226950;28;20025;-67
2023/07/01 09:14:20;;;;;;;1.80;1.00;;;;;;;18.75;100.00;100289.91;5233118;28;20021;-68
2023/07/01 09:16:51;;;;;;;2.15;1.00;;;;;;;18.73;100.00;100283.84;5236010;28;20142;-67
2023/07/01 09:19:23;;;;;;;2.10;0.98;;;;;;;18.71;100.00;100284.00;5225053;28;20038;-67
2023/07/01 09:22:08;;;;;;;2.05;1.20;;;;;;;18.80;100.00;100290.22;5218202;28;20029;-67
2023/07/01 09:24:39;;;;;;;2.60;1.02;;;;;;;18.83;100.00;100283.59;5229580;28;20825;-67
2023/07/01 09:27:10;;;;;;;1.77;1.02;;;;;;;18.87;100.00;100282.19;5230474;28;20041;-67
2023/07/01 09:29:42;;;;;;;2.00;1.20;;;;;;;19.01;100.00;100278.69;5218872;28;20036;-67
2023/07/01 09:32:31;;;;;;;2.17;1.10;;;;;;;19.07;100.00;100277.09;5214060;28;20166;-67
2023/07/01 09:35:02;;;;;;;2.38;1.10;;;;;;;19.09;100.00;100269.63;5227239;28;20510;-67
2023/07/01 09:37:34;;;;;;;1.63;1.10;;;;;;;19.22;100.00;100269.81;5234689;28;20037;-67
2023/07/01 09:40:24;;;;;;;2.65;1.17;;;;;;;19.31;100.00;100281.34;5223240;28;20076;-66
2023/07/01 09:42:56;;;;;;;1.95;1.20;;;;;;;19.18;100.00;100265.81;5229092;28;20025;-67
2023/07/01 09:45:27;;;;;;;2.25;1.20;;;;;;;19.23;100.00;100268.75;5222846;28;20025;-67
2023/07/01 09:48:09;;;;;;;2.42;1.10;;;;;;;19.33;100.00;100272.03;5226808;28;20030;-67
2023/07/01 09:50:41;;;;;;;2.50;1.38;;;;;;;19.46;100.00;100262.38;5230088;28;20030;-67
2023/07/01 09:53:24;;;;;;;2.28;1.20;;;;;;;19.48;100.00;100261.16;5224626;28;20068;-67
2023/07/01 09:55:56;;;;;;;2.00;1.05;;;;;;;19.49;100.00;100264.72;5233952;28;20026;-67
2023/07/01 09:58:29;;;;;;;2.58;1.20;;;;;;;19.58;100.00;100259.00;5232407;28;20030;-66
2023/07/01 10:01:00;;;;;;;2.70;1.10;;;;;;;19.40;100.00;100269.41;5227025;28;20761;-66
2023/07/01 10:03:32;;;;;;;1.90;1.08;;;;;;;19.45;100.00;100256.16;5234606;28;20082;-67
2023/07/01 10:06:04;;;;;;;2.65;1.30;;;;;;;19.50;100.00;100267.25;5225964;28;20029;-67
2023/07/01 10:08:37;;;;;;;2.10;1.20;;;;;;;19.50;100.00;100253.72;5222670;28;20025;-66
2023/07/01 10:11:16;;;;;;;1.98;1.13;;;;;;;19.55;100.00;100258.56;5231276;28;20117;-66
2023/07/01 10:13:51;;;;;;;2.35;1.20;;;;;;;19.53;100.00;100258.72;5228864;28;20030;-66
2023/07/01 10:16:23;;;;;;;2.80;1.40;;;;;;;19.51;100.00;100251.84;5229459;28;20036;-67
2023/07/01 10:18:55;;;;;;;2.08;1.08;;;;;;;19.51;100.00;100247.25;5230559;28;20025;-67
2023/07/01 10:21:29;;;;;;;1.73;1.10;;;;;;;19.52;100.00;100254.38;5231913;28;20041;-67
2023/07/01 10:24:00;;;;;;;;;;;;;;;19.71;100.00;100250.22;5232473;28;20052;-67
2023/07/01 10:26:33;;;;;;;2.10;1.25;;;;;;;19.55;100.00;100251.25;5245418;28;19913;-67
2023/07/01 10:29:37;;;;;;;2.38;1.30;;;;;;;19.76;100.00;100245.06;5229581;28;20472;-67
2023/07/01 10:32:09;;;;;;;3.65;1.73;;;;;;;19.68;100.00;100247.03;5232429;28;20037;-66
2023/07/01 10:34:52;;;;;;;2.30;1.60;;;;;;;19.66;100.00;100238.28;5222970;28;20471;-66
2023/07/01 10:37:26;;;;;;;2.80;1.90;;;;;;;19.71;100.00;100246.63;5237099;28;20041;-67
2023/07/01 10:39:59;;;;;;;3.28;1.95;;;;;;;19.69;100.00;100243.28;5238322;28;20045;-67
2023/07/01 10:42:33;;;;;;;2.88;1.90;;;;;;;19.87;100.00;100243.72;5227814;28;20036;-67
2023/07/01 10:45:10;;;;;;;3.67;2.20;;;;;;;20.05;100.00;100248.69;5235068;28;20066;-67
2023/07/01 10:48:03;;;;;;;2.83;2.20;;;;;;;20.17;100.00;100247.16;5242549;28;20050;-67
2023/07/01 10:51:05;;;;;;;3.13;2.55;;;;;;;20.31;100.00;100234.53;5236427;28;20033;-67
2023/07/01 10:53:54;;;;;;;4.07;2.53;;;;;;;20.43;100.00;100236.72;5237888;28;20467;-67
2023/07/01 10:57:07;;;;;;;4.65;2.35;;;;;;;20.50;100.00;100240.28;5250037;28;20040;-67
2023/07/01 10:59:38;;;;;;;3.22;2.40;;;;;;;20.47;100.00;100238.81;5247994;28;20025;-67
2023/07/01 11:02:11;;;;;;;3.55;2.83;;;;;;;20.54;100.00;100236.19;5234522;28;20403;-67
2023/07/01 11:04:51;;;;;;;4.20;2.50;;;;;;;20.72;100.00;100232.97;5230297;28;20124;-67
2023/07/01 11:07:26;;;;;;;4.78;2.65;;;;;;;20.79;100.00;100244.72;5225608;28;20112;-67
2023/07/01 11:09:58;;;;;;;3.30;2.75;;;;;;;20.88;100.00;100229.97;5230426;28;20116;-67
2023/07/01 11:12:30;;;;;;;3.53;2.35;;;;;;;21.02;100.00;100235.44;5248647;28;20462;-67
2023/07/01 11:15:02;;;;;;;3.38;2.85;;;;;;;21.19;100.00;100231.34;5227877;28;20030;-67
2023/07/01 11:17:34;;;;;;;4.90;3.05;;;;;;;21.16;100.00;100231.75;5239037;28;20028;-67
2023/07/01 11:20:06;;;;;;;4.35;2.70;;;;;;;21.17;100.00;100230.72;5239548;28;20038;-68
2023/07/01 11:22:40;;;;;;;4.72;3.03;;;;;;;21.24;100.00;100226.13;5227756;28;20017;-68
2023/07/01 11:25:12;;;;;;;3.22;2.83;;;;;;;21.25;100.00;100227.84;5236794;28;20037;-67
2023/07/01 11:27:43;;;;;;;3.60;3.15;;;;;;;21.30;100.00;100219.91;5234363;28;20041;-67
2023/07/01 11:30:31;;;;;;;3.72;2.88;;;;;;;21.37;100.00;100219.09;5226300;28;20048;-67
2023/07/01 11:33:12;;;;;;;3.90;2.78;;;;;;;21.44;100.00;100207.25;5240635;28;20102;-68
2023/07/01 11:35:55;;;;;;;4.10;2.60;;;;;;;21.48;100.00;100210.41;5232226;28;20037;-68
2023/07/01 11:38:27;;;;;;;3.40;2.35;;;;;;;21.45;100.00;100205.38;5234630;28;20655;-68
2023/07/01 11:40:58;;;;;;;3.15;2.40;;;;;;;21.51;100.00;100208.09;5230320;28;20029;-68
2023/07/01 11:43:30;;;;;;;2.88;2.20;;;;;;;21.53;100.00;100206.03;5231601;28;20568;-67